Terminal Aerodrome Forecast
Issued by NWS

Home | Current Version | Previous Version | Text Only | Print | Product List | Glossary On
Versions: 1 2 3 4 5 6 7 8 9 10 11 12 13
000
FTUS43 KOAX 212342
TAFBFF
TAF
KBFF 212342Z 2200/2224 31012G23KT P6SM SCT050 BKN070
      TEMPO 2200/2203 4SM -SN OVC025
     FM220500 31016KT P6SM BKN080
     FM221500 31028G45KT P6SM BKN080=

USA.gov is the U.S. government's official web portal to all federal, state and local government web resources and services.